Time;durP1;ratioP1;P1;durP2;ratioP2;P2;SDS_P1;SDS_P2;PMS_P1;PMS_P2;Temp;Humidity;BMP_temperature;BMP_pressure;BME280_temperature;BME280_humidity;BME280_pressure;Samples;Min_cycle;Max_cycle;Signal;HPM_P1;HPM_P2
2021/03/19 00:00:59;;;;;;;7.13;6.43;;;2.20;99.90;;;;;;5095742;28;20219;-76
2021/03/19 00:03:24;;;;;;;9.27;6.40;;;2.20;99.90;;;;;;5091412;28;20559;-76
2021/03/19 00:05:50;;;;;;;7.57;6.77;;;2.20;99.90;;;;;;5094494;28;20206;-75
2021/03/19 00:08:15;;;;;;;9.87;6.47;;;2.10;99.90;;;;;;5084062;28;20204;-76
2021/03/19 00:10:41;;;;;;;7.67;6.90;;;2.10;99.90;;;;;;5081076;28;20204;-76
2021/03/19 00:13:11;;;;;;;8.90;7.13;;;2.00;99.90;;;;;;5082480;28;20184;-76
2021/03/19 00:15:37;;;;;;;9.10;7.30;;;2.00;99.90;;;;;;5081910;28;20721;-75
2021/03/19 00:18:04;;;;;;;12.60;8.00;;;2.00;99.90;;;;;;5081988;28;20741;-76
2021/03/19 00:20:32;;;;;;;8.73;7.40;;;2.00;99.90;;;;;;5082495;28;20442;-76
2021/03/19 00:22:57;;;;;;;11.07;8.10;;;2.00;99.90;;;;;;5080919;28;20760;-76
2021/03/19 00:25:23;;;;;;;10.43;8.20;;;2.00;99.90;;;;;;5092878;28;20463;-76
2021/03/19 00:27:48;;;;;;;10.10;7.50;;;2.00;99.90;;;;;;5084915;28;20189;-75
2021/03/19 00:30:14;;;;;;;10.53;8.03;;;2.00;99.90;;;;;;5083186;28;20200;-76
2021/03/19 00:32:41;;;;;;;11.97;8.80;;;2.00;99.90;;;;;;5080659;28;20176;-76
2021/03/19 00:35:08;;;;;;;8.77;7.43;;;2.00;99.90;;;;;;5082209;28;20421;-76
2021/03/19 00:37:34;;;;;;;9.80;7.57;;;1.90;99.90;;;;;;5084463;28;20837;-76
2021/03/19 00:39:59;;;;;;;12.47;7.87;;;1.90;99.90;;;;;;5090253;28;20507;-76
2021/03/19 00:42:25;;;;;;;14.00;8.80;;;1.90;99.90;;;;;;5092545;28;20168;-76
2021/03/19 00:44:52;;;;;;;17.97;9.13;;;1.90;99.90;;;;;;5079694;28;20208;-76
2021/03/19 00:47:17;;;;;;;11.83;7.77;;;1.90;99.90;;;;;;5085250;28;20411;-76
2021/03/19 00:49:43;;;;;;;12.10;7.13;;;1.80;99.90;;;;;;5095536;28;20817;-76
2021/03/19 00:52:08;;;;;;;13.07;8.10;;;1.80;99.90;;;;;;5080859;28;20195;-75
2021/03/19 00:54:34;;;;;;;13.80;8.37;;;1.80;99.90;;;;;;5081269;28;20173;-76
2021/03/19 00:57:00;;;;;;;11.00;8.93;;;1.80;99.90;;;;;;5080781;28;20238;-75
2021/03/19 00:59:25;;;;;;;10.17;8.93;;;1.80;99.90;;;;;;5080559;28;20180;-76
2021/03/19 01:01:52;;;;;;;10.20;8.63;;;1.80;99.90;;;;;;5094889;28;20181;-75
2021/03/19 01:04:17;;;;;;;14.20;8.90;;;1.80;99.90;;;;;;5082057;28;20195;-76
2021/03/19 01:06:43;;;;;;;11.77;9.13;;;1.80;99.90;;;;;;5079559;28;21075;-76
2021/03/19 01:09:08;;;;;;;12.97;10.47;;;1.80;99.90;;;;;;5081730;28;20646;-75
2021/03/19 01:11:34;;;;;;;13.17;10.23;;;1.80;99.90;;;;;;5085983;28;20203;-76
2021/03/19 01:14:00;;;;;;;13.23;8.77;;;1.80;99.90;;;;;;5089950;28;20759;-75
2021/03/19 01:16:26;;;;;;;13.17;10.07;;;1.80;99.90;;;;;;5082351;28;20177;-76
2021/03/19 01:18:52;;;;;;;14.27;9.13;;;1.80;99.90;;;;;;5079112;28;20427;-76
2021/03/19 01:21:18;;;;;;;13.73;10.00;;;1.80;99.90;;;;;;5079315;28;20211;-76
2021/03/19 01:23:45;;;;;;;22.90;9.57;;;1.80;99.90;;;;;;5082075;28;20927;-76
2021/03/19 01:26:15;;;;;;;19.00;10.00;;;1.70;99.90;;;;;;5080171;28;20433;-75
2021/03/19 01:28:41;;;;;;;14.23;9.40;;;1.70;99.90;;;;;;5079141;28;20404;-76
2021/03/19 01:31:07;;;;;;;14.27;9.20;;;1.70;99.90;;;;;;5080048;28;20530;-76
2021/03/19 01:33:35;;;;;;;14.70;9.70;;;1.70;99.90;;;;;;5081060;28;20500;-76
2021/03/19 01:36:06;;;;;;;12.80;9.20;;;1.60;99.90;;;;;;5080513;28;20183;-76
2021/03/19 01:38:33;;;;;;;11.27;9.47;;;1.60;99.90;;;;;;5079835;28;20430;-76
2021/03/19 01:40:59;;;;;;;14.13;10.20;;;1.60;99.90;;;;;;5079988;28;20458;-75
2021/03/19 01:43:44;;;;;;;16.10;10.70;;;1.60;99.90;;;;;;5081933;28;20425;-75
2021/03/19 01:46:46;;;;;;;15.30;10.20;;;1.60;99.90;;;;;;5081760;28;20827;-76
2021/03/19 01:49:50;;;;;;;14.43;9.37;;;1.50;99.90;;;;;;5083021;28;20402;-76
2021/03/19 01:52:53;;;;;;;20.60;9.50;;;1.50;99.90;;;;;;5080647;28;20503;-76
2021/03/19 01:55:56;;;;;;;14.93;10.07;;;1.40;99.90;;;;;;5079089;28;20550;-76
2021/03/19 01:58:59;;;;;;;11.90;9.47;;;1.40;99.90;;;;;;5080639;28;20427;-74
2021/03/19 02:02:02;;;;;;;20.13;11.10;;;1.40;99.90;;;;;;5083316;28;20440;-76
2021/03/19 02:05:05;;;;;;;13.43;9.57;;;1.40;99.90;;;;;;5083511;28;20950;-76
2021/03/19 02:08:07;;;;;;;15.47;10.13;;;1.40;99.90;;;;;;5083997;28;20456;-75
2021/03/19 02:11:10;;;;;;;13.60;10.20;;;1.30;99.90;;;;;;5084147;28;20443;-75
2021/03/19 02:14:13;;;;;;;12.37;9.30;;;1.30;99.90;;;;;;5084232;28;20454;-76
2021/03/19 02:17:16;;;;;;;15.40;8.80;;;1.30;99.90;;;;;;5085118;28;20503;-76
2021/03/19 02:20:19;;;;;;;13.73;9.20;;;1.20;99.90;;;;;;5085052;28;20428;-76
2021/03/19 02:23:22;;;;;;;12.80;9.30;;;1.20;99.90;;;;;;5085827;28;20930;-76
2021/03/19 02:26:26;;;;;;;14.73;9.53;;;1.20;99.90;;;;;;5081369;28;20880;-76
2021/03/19 02:29:28;;;;;;;14.50;9.47;;;1.20;99.90;;;;;;5082303;28;20400;-76
2021/03/19 02:32:11;;;;;;;12.33;9.27;;;1.10;99.90;;;;;;5082828;28;20449;-72
2021/03/19 02:34:41;;;;;;;11.93;9.07;;;1.10;99.90;;;;;;5082794;28;20497;-74
2021/03/19 02:37:12;;;;;;;15.73;10.10;;;1.10;99.90;;;;;;5085188;28;20470;-74
2021/03/19 02:39:38;;;;;;;12.13;10.70;;;1.10;99.90;;;;;;5083833;28;20454;-73
2021/03/19 02:42:06;;;;;;;11.47;9.40;;;1.10;99.90;;;;;;5084328;28;20953;-74
2021/03/19 02:44:32;;;;;;;12.53;9.87;;;1.20;99.90;;;;;;5084405;28;20601;-74
2021/03/19 02:46:57;;;;;;;17.33;9.43;;;1.20;99.90;;;;;;5083067;28;20492;-74
2021/03/19 02:49:23;;;;;;;14.60;10.90;;;1.20;99.90;;;;;;5085061;28;20924;-73
2021/03/19 02:51:52;;;;;;;19.63;11.00;;;1.20;99.90;;;;;;5082083;28;20202;-74
2021/03/19 02:54:18;;;;;;;16.23;10.07;;;1.20;99.90;;;;;;5082076;28;20177;-74
2021/03/19 02:56:43;;;;;;;19.63;11.67;;;1.30;99.90;;;;;;5084788;28;20422;-74
2021/03/19 02:59:09;;;;;;;19.50;12.37;;;1.30;99.90;;;;;;5081614;28;20173;-74
2021/03/19 03:01:34;;;;;;;17.43;11.40;;;1.30;99.90;;;;;;5083305;28;20203;-74
2021/03/19 03:04:00;;;;;;;13.10;10.20;;;1.40;99.90;;;;;;5082716;28;20177;-74
2021/03/19 03:06:36;;;;;;;17.10;10.87;;;1.40;99.90;;;;;;5082062;28;20205;-74
2021/03/19 03:09:04;;;;;;;16.40;10.70;;;1.40;99.90;;;;;;5084582;28;20187;-73
2021/03/19 03:11:30;;;;;;;20.53;10.57;;;1.30;99.90;;;;;;5083569;28;20439;-73
2021/03/19 03:13:55;;;;;;;20.13;10.93;;;1.30;99.90;;;;;;5081892;28;20423;-74
2021/03/19 03:16:21;;;;;;;13.70;10.00;;;1.30;99.90;;;;;;5085105;28;20178;-74
2021/03/19 03:18:47;;;;;;;13.57;10.67;;;1.30;99.90;;;;;;5081419;28;20181;-74
2021/03/19 03:21:12;;;;;;;15.37;11.20;;;1.30;99.90;;;;;;5084140;28;21012;-75
2021/03/19 03:23:38;;;;;;;17.43;12.03;;;1.30;99.90;;;;;;5082230;28;20237;-76
2021/03/19 03:26:03;;;;;;;12.40;10.00;;;1.30;99.90;;;;;;5083085;28;20202;-76
2021/03/19 03:28:29;;;;;;;15.00;9.97;;;1.40;99.90;;;;;;5083540;28;20174;-75
2021/03/19 03:30:57;;;;;;;18.07;10.97;;;1.40;99.90;;;;;;5081579;28;20682;-75
2021/03/19 03:33:24;;;;;;;15.30;10.07;;;1.40;99.90;;;;;;5084495;28;20184;-76
2021/03/19 03:35:51;;;;;;;15.03;10.13;;;1.50;99.90;;;;;;5081355;28;20397;-76
2021/03/19 03:38:23;;;;;;;11.90;9.70;;;1.50;99.90;;;;;;5083121;28;20982;-75
2021/03/19 03:41:05;;;;;;;13.03;10.90;;;1.50;99.90;;;;;;5081104;28;20455;-76
2021/03/19 03:43:33;;;;;;;17.77;10.77;;;1.60;99.90;;;;;;5081767;28;20407;-75
2021/03/19 03:45:59;;;;;;;14.80;11.60;;;1.60;99.90;;;;;;5083755;28;20490;-75
2021/03/19 03:48:28;;;;;;;13.30;9.83;;;1.60;99.90;;;;;;5079886;28;20826;-75
2021/03/19 03:50:55;;;;;;;15.20;10.97;;;1.60;99.90;;;;;;5084166;28;20461;-76
2021/03/19 03:53:21;;;;;;;18.07;10.53;;;1.70;99.90;;;;;;5080740;28;20422;-76
2021/03/19 03:55:48;;;;;;;15.20;10.73;;;1.70;99.90;;;;;;5084159;28;20422;-76
2021/03/19 03:58:14;;;;;;;14.10;10.50;;;1.70;99.90;;;;;;5080008;28;20439;-75
2021/03/19 04:00:41;;;;;;;14.63;10.60;;;1.70;99.90;;;;;;5082864;28;21179;-76
2021/03/19 04:03:08;;;;;;;15.60;9.50;;;1.70;99.90;;;;;;5082119;28;20455;-76
2021/03/19 04:05:41;;;;;;;16.37;10.80;;;1.80;99.90;;;;;;5081827;28;20493;-76
2021/03/19 04:08:08;;;;;;;13.93;10.50;;;1.70;99.90;;;;;;5081063;28;20795;-76
2021/03/19 04:10:34;;;;;;;14.67;10.80;;;1.70;99.90;;;;;;5081564;28;20504;-75
2021/03/19 04:13:00;;;;;;;14.60;10.00;;;1.70;99.90;;;;;;5082960;28;20948;-76
2021/03/19 04:15:26;;;;;;;13.70;10.10;;;1.70;99.90;;;;;;5080546;28;20431;-75
2021/03/19 04:18:00;;;;;;;15.80;10.57;;;1.70;99.90;;;;;;5084047;28;20426;-76
2021/03/19 04:20:27;;;;;;;12.30;9.10;;;1.70;99.90;;;;;;5080356;28;20435;-75
2021/03/19 04:22:54;;;;;;;16.20;10.90;;;1.70;99.90;;;;;;5083841;28;20944;-76
2021/03/19 04:25:21;;;;;;;16.60;11.50;;;1.70;99.90;;;;;;5083542;28;20440;-76
2021/03/19 04:27:55;;;;;;;15.20;10.73;;;1.70;99.90;;;;;;5079052;28;20417;-76
2021/03/19 04:30:27;;;;;;;14.07;10.37;;;1.70;99.90;;;;;;5082638;28;20474;-76
2021/03/19 04:32:54;;;;;;;12.83;10.30;;;1.70;99.90;;;;;;5078988;28;21066;-76
2021/03/19 04:35:22;;;;;;;15.40;10.63;;;1.70;99.90;;;;;;5083460;28;20472;-76
2021/03/19 04:37:49;;;;;;;13.57;11.20;;;1.70;99.90;;;;;;5079986;28;20761;-76
2021/03/19 04:40:16;;;;;;;15.90;11.90;;;1.70;99.90;;;;;;5082835;28;20438;-76
2021/03/19 04:42:41;;;;;;;20.77;11.10;;;1.70;99.90;;;;;;5080520;28;20950;-76
2021/03/19 04:45:11;;;;;;;17.00;11.37;;;1.70;99.90;;;;;;5081778;28;20394;-76
2021/03/19 04:47:36;;;;;;;19.20;12.23;;;1.70;99.90;;;;;;5081156;28;20182;-76
2021/03/19 04:50:05;;;;;;;13.20;10.60;;;1.70;99.90;;;;;;5081044;28;20432;-76
2021/03/19 04:52:31;;;;;;;13.60;9.93;;;1.80;99.90;;;;;;5081719;28;20182;-76
2021/03/19 04:55:00;;;;;;;15.13;10.87;;;1.80;99.90;;;;;;5079620;28;20429;-76
2021/03/19 04:57:25;;;;;;;18.20;12.07;;;1.80;99.90;;;;;;5081924;28;20178;-76
2021/03/19 04:59:51;;;;;;;16.87;11.83;;;1.80;99.90;;;;;;5079476;28;20440;-76
2021/03/19 05:02:16;;;;;;;14.70;11.13;;;1.80;99.90;;;;;;5082713;28;20562;-76
2021/03/19 05:04:42;;;;;;;15.13;10.80;;;1.80;99.90;;;;;;5080259;28;20182;-76
2021/03/19 05:07:09;;;;;;;18.70;12.37;;;1.80;99.90;;;;;;5081421;28;20619;-76
2021/03/19 05:09:35;;;;;;;14.67;11.03;;;1.80;99.90;;;;;;5079888;28;20517;-75
2021/03/19 05:12:03;;;;;;;18.97;11.07;;;1.80;99.90;;;;;;5079247;28;20430;-76
2021/03/19 05:14:29;;;;;;;17.57;12.83;;;1.80;99.90;;;;;;5086765;28;20914;-74
2021/03/19 05:16:55;;;;;;;21.67;16.27;;;1.80;99.90;;;;;;5084083;28;20381;-73
2021/03/19 05:19:24;;;;;;;19.57;13.67;;;1.90;99.90;;;;;;5079221;28;20425;-73
2021/03/19 05:21:50;;;;;;;14.03;12.40;;;1.90;99.90;;;;;;5079536;28;20196;-73
2021/03/19 05:24:15;;;;;;;18.83;14.73;;;1.90;99.90;;;;;;5082097;28;20448;-72
2021/03/19 05:26:41;;;;;;;18.07;13.40;;;1.90;99.90;;;;;;5080189;28;20629;-74
2021/03/19 05:29:09;;;;;;;24.03;14.37;;;1.90;99.90;;;;;;5080891;28;20173;-73
2021/03/19 05:31:35;;;;;;;19.30;13.30;;;1.90;99.90;;;;;;5081001;28;21070;-73
2021/03/19 05:34:00;;;;;;;17.37;11.93;;;1.90;99.90;;;;;;5079552;28;20419;-73
2021/03/19 05:36:29;;;;;;;16.63;12.83;;;2.00;99.90;;;;;;5082899;28;20841;-73
2021/03/19 05:38:55;;;;;;;38.17;23.47;;;1.90;99.90;;;;;;5082133;28;20257;-73
2021/03/19 05:41:25;;;;;;;23.60;18.73;;;2.00;99.90;;;;;;5079373;28;20713;-73
2021/03/19 05:44:09;;;;;;;20.37;14.40;;;1.90;99.90;;;;;;5079174;28;20424;-69
2021/03/19 05:46:37;;;;;;;19.90;14.83;;;1.90;99.90;;;;;;5080356;28;20470;-73
2021/03/19 05:49:14;;;;;;;22.17;14.03;;;1.80;99.90;;;;;;5080936;28;20420;-73
2021/03/19 05:51:54;;;;;;;30.73;13.00;;;1.90;99.90;;;;;;5081126;28;20440;-73
2021/03/19 05:54:28;;;;;;;19.00;12.70;;;1.90;99.90;;;;;;5079008;28;20425;-73
2021/03/19 05:57:08;;;;;;;21.03;14.00;;;1.90;99.90;;;;;;5081758;28;20402;-72
2021/03/19 05:59:55;;;;;;;17.30;13.00;;;1.90;99.90;;;;;;5080046;28;20968;-72
2021/03/19 06:02:34;;;;;;;19.20;12.57;;;1.90;99.90;;;;;;5077993;28;20433;-73
2021/03/19 06:05:21;;;;;;;18.67;12.60;;;1.90;99.90;;;;;;5079672;28;20498;-72
2021/03/19 06:07:53;;;;;;;18.33;13.43;;;2.00;99.90;;;;;;5078317;28;20403;-72
2021/03/19 06:10:21;;;;;;;15.53;12.03;;;2.00;99.90;;;;;;5084548;28;20404;-73
2021/03/19 06:12:49;;;;;;;15.50;11.80;;;2.00;99.90;;;;;;5083681;28;20812;-73
2021/03/19 06:15:29;;;;;;;18.50;13.67;;;2.00;99.90;;;;;;5085277;28;20795;-73
2021/03/19 06:17:58;;;;;;;18.97;12.53;;;2.10;99.90;;;;;;5078363;28;20886;-73
2021/03/19 06:20:25;;;;;;;15.27;11.67;;;2.10;99.90;;;;;;5082918;28;20442;-73
2021/03/19 06:23:03;;;;;;;18.40;13.03;;;2.10;99.90;;;;;;5080221;28;20833;-72
2021/03/19 06:25:34;;;;;;;17.30;11.83;;;2.10;99.90;;;;;;5086481;28;20962;-72
2021/03/19 06:28:04;;;;;;;20.03;14.40;;;2.10;99.90;;;;;;5092746;28;20837;-72
2021/03/19 06:30:36;;;;;;;23.23;14.47;;;2.10;99.90;;;;;;5079564;28;20422;-72
2021/03/19 06:33:25;;;;;;;33.97;14.57;;;2.10;99.90;;;;;;5085523;28;20392;-73
2021/03/19 06:36:20;;;;;;;19.37;13.40;;;2.10;99.90;;;;;;5087969;28;20477;-72
2021/03/19 06:39:03;;;;;;;20.23;15.40;;;2.10;99.90;;;;;;5084224;28;20931;-72
2021/03/19 06:41:37;;;;;;;22.33;14.03;;;2.10;99.90;;;;;;5085364;28;20438;-73
2021/03/19 06:44:18;;;;;;;18.67;15.13;;;2.10;99.90;;;;;;5088942;28;20860;-73
2021/03/19 06:46:53;;;;;;;35.23;16.07;;;2.10;99.90;;;;;;5086024;28;20464;-73
2021/03/19 06:49:21;;;;;;;23.33;15.03;;;2.20;99.90;;;;;;5082011;28;20909;-73
2021/03/19 06:51:49;;;;;;;22.63;16.40;;;2.20;99.90;;;;;;5083899;28;20424;-73
2021/03/19 06:54:22;;;;;;;25.00;15.70;;;2.20;99.90;;;;;;5089726;28;20387;-72
2021/03/19 06:57:10;;;;;;;20.57;15.80;;;2.20;99.90;;;;;;5079958;28;20968;-72
2021/03/19 07:00:05;;;;;;;25.00;16.30;;;2.30;99.90;;;;;;5080346;28;20436;-71
2021/03/19 07:03:03;;;;;;;23.77;17.90;;;2.30;99.90;;;;;;5065591;28;20445;-72
2021/03/19 07:05:45;;;;;;;27.07;17.10;;;2.40;99.90;;;;;;5089138;28;20888;-73
2021/03/19 07:08:25;;;;;;;24.80;17.43;;;2.40;99.90;;;;;;5083475;28;20401;-71
2021/03/19 07:11:26;;;;;;;24.67;17.03;;;2.40;99.90;;;;;;5079846;28;20463;-72
2021/03/19 07:14:06;;;;;;;44.67;18.73;;;2.50;99.90;;;;;;5093365;28;20436;-71
2021/03/19 07:16:43;;;;;;;28.00;19.60;;;2.50;99.90;;;;;;5087232;28;20476;-72
2021/03/19 07:19:22;;;;;;;26.63;18.23;;;2.50;99.90;;;;;;5089670;28;20782;-72
2021/03/19 07:22:16;;;;;;;30.20;18.47;;;2.50;99.90;;;;;;5092122;28;20883;-72
2021/03/19 07:25:11;;;;;;;29.77;18.13;;;2.60;99.90;;;;;;5090367;28;20445;-73
2021/03/19 07:27:43;;;;;;;28.27;17.27;;;2.70;99.90;;;;;;5092624;28;20422;-73
2021/03/19 07:30:15;;;;;;;36.93;19.50;;;2.70;99.90;;;;;;5087066;28;20822;-72
2021/03/19 07:33:01;;;;;;;30.13;18.57;;;2.70;99.90;;;;;;5091971;28;20466;-71
2021/03/19 07:35:51;;;;;;;24.63;18.13;;;2.60;99.90;;;;;;5093068;28;20475;-72
2021/03/19 07:38:54;;;;;;;28.90;16.40;;;2.70;99.90;;;;;;5094242;28;20846;-71
2021/03/19 07:41:47;;;;;;;30.50;19.07;;;2.70;99.90;;;;;;5090806;28;20441;-71
2021/03/19 07:44:43;;;;;;;28.60;17.90;;;2.90;99.90;;;;;;5091438;28;20470;-71
2021/03/19 07:47:27;;;;;;;24.87;17.67;;;3.00;99.90;;;;;;5083198;28;20445;-71
2021/03/19 07:50:27;;;;;;;24.27;17.80;;;3.00;99.90;;;;;;5095100;28;20484;-71
2021/03/19 07:53:08;;;;;;;28.07;17.80;;;3.10;99.90;;;;;;5079563;28;20403;-71
2021/03/19 07:55:55;;;;;;;26.37;18.17;;;3.20;99.90;;;;;;5081400;28;20415;-71
2021/03/19 07:58:46;;;;;;;22.77;15.97;;;3.30;99.90;;;;;;5091013;28;21167;-71
2021/03/19 08:01:21;;;;;;;25.57;17.33;;;3.30;99.90;;;;;;5082575;28;20423;-71
2021/03/19 08:03:56;;;;;;;24.97;16.80;;;3.40;99.90;;;;;;5080559;28;21150;-71
2021/03/19 08:06:31;;;;;;;22.63;15.40;;;3.40;99.90;;;;;;5081012;28;20457;-71
2021/03/19 08:09:10;;;;;;;18.80;14.20;;;3.40;99.90;;;;;;5081021;28;20419;-71
2021/03/19 08:11:59;;;;;;;20.60;14.60;;;3.40;99.90;;;;;;5081682;28;20450;-71
2021/03/19 08:14:40;;;;;;;20.73;12.53;;;3.40;99.90;;;;;;5091597;28;20402;-71
2021/03/19 08:17:08;;;;;;;18.73;14.27;;;3.40;99.90;;;;;;5090269;28;20418;-71
2021/03/19 08:19:41;;;;;;;18.57;13.37;;;3.40;99.90;;;;;;5086719;28;20385;-71
2021/03/19 08:22:10;;;;;;;19.67;12.87;;;3.30;99.90;;;;;;5088212;28;20403;-71
2021/03/19 08:24:53;;;;;;;22.00;13.57;;;3.30;99.90;;;;;;5091165;28;20956;-71
2021/03/19 08:27:40;;;;;;;23.73;16.43;;;3.20;99.90;;;;;;5091213;28;20892;-70
2021/03/19 08:30:33;;;;;;;24.73;14.77;;;3.20;99.90;;;;;;5087371;28;20419;-71
2021/03/19 08:33:06;;;;;;;19.23;13.37;;;3.20;99.90;;;;;;5090472;28;20478;-71
2021/03/19 08:35:58;;;;;;;21.30;14.07;;;3.20;99.90;;;;;;5082770;28;20401;-72
2021/03/19 08:38:42;;;;;;;23.67;15.50;;;3.20;99.90;;;;;;5086888;28;20407;-71
2021/03/19 08:41:15;;;;;;;21.43;13.87;;;3.20;99.90;;;;;;5085021;28;20451;-71
2021/03/19 08:43:51;;;;;;;19.60;12.37;;;3.20;99.90;;;;;;5087684;28;20441;-71
2021/03/19 08:46:33;;;;;;;19.83;13.87;;;3.20;99.90;;;;;;5094922;28;20525;-71
2021/03/19 08:49:02;;;;;;;25.37;13.13;;;3.30;99.90;;;;;;5094115;28;20445;-73
2021/03/19 08:51:28;;;;;;;21.50;13.50;;;3.30;99.90;;;;;;5087104;28;20480;-72
2021/03/19 08:54:12;;;;;;;21.80;14.43;;;3.30;99.90;;;;;;5089382;28;20421;-71
2021/03/19 08:56:43;;;;;;;21.00;12.97;;;3.20;99.90;;;;;;5085891;28;20272;-71
2021/03/19 08:59:09;;;;;;;19.00;13.47;;;3.30;99.90;;;;;;5080392;28;20446;-71
2021/03/19 09:01:53;;;;;;;19.77;13.73;;;3.50;99.90;;;;;;5083521;28;20428;-71
2021/03/19 09:04:57;;;;;;;17.77;13.07;;;3.60;99.90;;;;;;5090033;28;20185;-71
2021/03/19 09:08:01;;;;;;;20.23;14.33;;;3.80;99.90;;;;;;5086385;28;20463;-71
2021/03/19 09:10:27;;;;;;;20.80;14.10;;;3.90;99.90;;;;;;5093228;28;20812;-70
2021/03/19 09:12:55;;;;;;;22.67;15.47;;;4.10;99.90;;;;;;5087128;28;20433;-71
2021/03/19 09:15:21;;;;;;;18.17;12.63;;;4.10;99.90;;;;;;5089903;28;20713;-71
2021/03/19 09:17:52;;;;;;;18.83;13.87;;;4.00;99.90;;;;;;5080671;28;21167;-71
2021/03/19 09:20:25;;;;;;;23.57;13.27;;;3.90;99.90;;;;;;5081410;28;20192;-70
2021/03/19 09:23:10;;;;;;;15.97;11.50;;;3.90;99.90;;;;;;5088974;28;20424;-71
2021/03/19 09:25:55;;;;;;;18.67;13.00;;;3.80;99.90;;;;;;5083119;28;20465;-71
2021/03/19 09:28:38;;;;;;;20.27;13.60;;;3.70;99.90;;;;;;5088667;28;20438;-71
2021/03/19 09:31:23;;;;;;;20.00;13.33;;;3.60;99.90;;;;;;5088108;28;20528;-72
2021/03/19 09:33:49;;;;;;;18.70;12.10;;;3.50;99.90;;;;;;5086127;28;20508;-72
2021/03/19 09:36:52;;;;;;;17.20;12.50;;;3.50;99.90;;;;;;5082827;28;20432;-70
2021/03/19 09:39:56;;;;;;;21.00;13.70;;;3.40;99.90;;;;;;5087893;28;20615;-72
2021/03/19 09:42:21;;;;;;;22.53;13.83;;;3.50;99.90;;;;;;5087523;28;20419;-71
2021/03/19 09:44:49;;;;;;;16.23;11.30;;;3.50;99.90;;;;;;5081317;28;20544;-72
2021/03/19 09:47:18;;;;;;;18.83;12.63;;;3.70;99.90;;;;;;5089176;28;20200;-72
2021/03/19 09:49:43;;;;;;;16.80;11.93;;;3.70;99.90;;;;;;5086946;28;20482;-72
2021/03/19 09:52:16;;;;;;;17.33;11.07;;;3.80;99.90;;;;;;5092795;28;20417;-72
2021/03/19 09:54:42;;;;;;;15.33;11.73;;;3.90;99.90;;;;;;5088800;28;20180;-72
2021/03/19 09:57:21;;;;;;;16.80;11.47;;;4.30;99.90;;;;;;5080838;28;20416;-72
2021/03/19 10:00:13;;;;;;;12.90;9.50;;;4.60;99.90;;;;;;5078945;28;20516;-72
2021/03/19 10:02:40;;;;;;;15.50;11.10;;;4.80;99.90;;;;;;5083057;28;20521;-72
2021/03/19 10:05:14;;;;;;;14.73;10.97;;;4.90;99.90;;;;;;5088733;28;20426;-72
2021/03/19 10:08:00;;;;;;;11.50;9.37;;;5.00;99.90;;;;;;5080106;28;20781;-72
2021/03/19 10:10:38;;;;;;;14.10;9.67;;;4.80;99.90;;;;;;5094828;28;20444;-72
2021/03/19 10:13:30;;;;;;;13.97;9.70;;;4.70;99.90;;;;;;5081627;28;20943;-71
2021/03/19 10:15:56;;;;;;;13.10;9.97;;;4.60;99.90;;;;;;5077150;28;20848;-72
2021/03/19 10:18:22;;;;;;;12.70;10.00;;;4.60;99.90;;;;;;5078240;28;20404;-72
2021/03/19 10:20:57;;;;;;;15.30;10.20;;;4.50;99.90;;;;;;5082013;28;20797;-71
2021/03/19 10:23:22;;;;;;;14.93;10.10;;;4.50;99.90;;;;;;5081433;28;20176;-72
2021/03/19 10:25:51;;;;;;;13.17;9.90;;;4.50;99.90;;;;;;5094476;28;20446;-71
2021/03/19 10:28:17;;;;;;;13.03;8.70;;;4.50;99.90;;;;;;5085185;28;20440;-71
2021/03/19 10:30:53;;;;;;;11.53;9.57;;;4.70;99.90;;;;;;5093081;28;20440;-72
2021/03/19 10:33:36;;;;;;;15.50;11.17;;;4.70;99.90;;;;;;5085935;28;20250;-71
2021/03/19 10:36:10;;;;;;;14.47;10.20;;;4.90;99.90;;;;;;5083431;28;20795;-71
2021/03/19 10:38:46;;;;;;;12.37;9.40;;;5.10;99.90;;;;;;5082925;28;20426;-71
2021/03/19 10:41:45;;;;;;;12.57;8.53;;;5.30;99.90;;;;;;5084644;28;20500;-71
2021/03/19 10:44:23;;;;;;;12.73;9.73;;;5.30;99.90;;;;;;5083161;28;20494;-71
2021/03/19 10:46:57;;;;;;;13.63;8.20;;;5.10;99.90;;;;;;5081613;28;20507;-71
2021/03/19 10:49:58;;;;;;;6.90;6.10;;;4.90;99.90;;;;;;5086606;28;20450;-71
2021/03/19 10:52:37;;;;;;;8.87;7.30;;;4.60;99.90;;;;;;4990024;28;20429;-71
2021/03/19 10:55:11;;;;;;;8.33;6.67;;;4.30;99.90;;;;;;5072600;28;20418;-71
2021/03/19 10:57:40;;;;;;;11.10;4.60;;;4.20;99.90;;;;;;5082489;28;20480;-71
2021/03/19 11:00:30;;;;;;;7.83;6.13;;;4.10;99.90;;;;;;5083420;28;20436;-71
2021/03/19 11:03:03;;;;;;;6.87;5.40;;;3.90;99.90;;;;;;5082277;28;20890;-71
2021/03/19 11:05:28;;;;;;;5.73;5.03;;;4.00;99.90;;;;;;5087949;28;20799;-71
2021/03/19 11:07:54;;;;;;;7.97;5.57;;;4.10;99.90;;;;;;5093027;28;20416;-71
2021/03/19 11:10:35;;;;;;;5.67;5.13;;;4.30;99.90;;;;;;5094319;28;20201;-72
2021/03/19 11:13:06;;;;;;;5.07;4.67;;;4.50;99.90;;;;;;5089169;28;20207;-71
2021/03/19 11:15:32;;;;;;;4.20;3.87;;;4.70;99.90;;;;;;5092921;28;20569;-72
2021/03/19 11:18:20;;;;;;;6.30;4.77;;;4.70;99.90;;;;;;5082132;28;20508;-71
2021/03/19 11:20:58;;;;;;;5.17;4.70;;;4.90;99.90;;;;;;5081526;28;20669;-71
2021/03/19 11:23:39;;;;;;;5.00;4.60;;;4.90;99.90;;;;;;5092800;28;20389;-73
2021/03/19 11:26:27;;;;;;;6.20;5.60;;;4.80;99.90;;;;;;5090468;28;20459;-72
2021/03/19 11:29:18;;;;;;;6.57;5.23;;;4.70;99.90;;;;;;5091708;28;20835;-71
2021/03/19 11:32:00;;;;;;;5.07;4.57;;;4.90;99.90;;;;;;5093668;28;20819;-71
2021/03/19 11:34:34;;;;;;;4.40;4.00;;;5.10;99.90;;;;;;5081610;28;20920;-71
2021/03/19 11:37:24;;;;;;;4.60;4.20;;;5.10;99.90;;;;;;5095752;28;20760;-71
2021/03/19 11:39:50;;;;;;;5.37;4.40;;;5.10;99.90;;;;;;5081376;28;20467;-71
2021/03/19 11:42:18;;;;;;;5.57;4.50;;;5.00;99.90;;;;;;5090165;28;20534;-70
2021/03/19 11:44:46;;;;;;;5.30;4.80;;;4.90;99.90;;;;;;5090817;28;20181;-70
2021/03/19 11:47:23;;;;;;;5.63;4.80;;;4.80;99.90;;;;;;5084012;28;20484;-71
2021/03/19 11:49:50;;;;;;;9.53;6.17;;;4.80;99.90;;;;;;5080805;28;21181;-71
2021/03/19 11:52:17;;;;;;;6.47;5.70;;;4.60;99.90;;;;;;5082896;28;20417;-71
2021/03/19 11:54:43;;;;;;;7.33;6.03;;;4.50;99.90;;;;;;5081564;28;20445;-71
2021/03/19 11:57:10;;;;;;;7.70;6.23;;;4.50;99.90;;;;;;5083793;28;20425;-71
2021/03/19 11:59:36;;;;;;;9.23;6.30;;;4.60;99.90;;;;;;5080831;28;20189;-71
2021/03/19 12:02:08;;;;;;;9.00;7.10;;;4.70;99.90;;;;;;5082083;28;20802;-71
2021/03/19 12:04:33;;;;;;;6.10;5.50;;;4.90;99.90;;;;;;5083253;28;20432;-71
2021/03/19 12:06:59;;;;;;;7.87;5.80;;;4.80;99.90;;;;;;5092405;28;20778;-71
2021/03/19 12:09:27;;;;;;;9.30;6.60;;;4.50;99.90;;;;;;5086101;28;20215;-72
2021/03/19 12:11:52;;;;;;;10.67;8.17;;;4.20;99.90;;;;;;5089034;28;20224;-71
2021/03/19 12:14:24;;;;;;;9.57;6.73;;;4.00;99.90;;;;;;5091615;28;20421;-71
2021/03/19 12:16:50;;;;;;;12.57;8.17;;;4.00;99.90;;;;;;5083865;28;20184;-71
2021/03/19 12:19:18;;;;;;;12.03;7.77;;;3.90;99.90;;;;;;5087324;28;20489;-71
2021/03/19 12:21:44;;;;;;;16.17;8.90;;;3.80;99.90;;;;;;5089984;28;20427;-72
2021/03/19 12:24:09;;;;;;;13.23;8.87;;;3.70;99.90;;;;;;5082988;28;20435;-72
2021/03/19 12:26:35;;;;;;;14.00;9.00;;;3.80;99.90;;;;;;5086295;28;20257;-71
2021/03/19 12:29:01;;;;;;;16.37;9.60;;;3.80;99.90;;;;;;5090798;28;20419;-71
2021/03/19 12:31:27;;;;;;;15.50;10.03;;;3.70;99.90;;;;;;5080380;28;20602;-73
2021/03/19 12:33:53;;;;;;;15.93;10.10;;;3.60;99.90;;;;;;5089491;28;20390;-71
2021/03/19 12:36:18;;;;;;;13.43;9.53;;;3.60;99.90;;;;;;5088415;28;20646;-71
2021/03/19 12:38:44;;;;;;;17.90;9.13;;;3.60;99.90;;;;;;5081150;28;20189;-71
2021/03/19 12:41:10;;;;;;;18.60;10.97;;;3.50;99.90;;;;;;5081338;28;20242;-73
2021/03/19 12:43:35;;;;;;;14.43;9.17;;;3.40;99.90;;;;;;5080556;28;20190;-72
2021/03/19 12:46:01;;;;;;;17.17;10.73;;;3.40;99.90;;;;;;5094669;28;20209;-71
2021/03/19 12:48:27;;;;;;;16.73;11.20;;;3.40;99.90;;;;;;5083162;28;20180;-71
2021/03/19 12:50:52;;;;;;;20.03;11.57;;;3.30;99.90;;;;;;5079699;28;20532;-71
2021/03/19 12:53:21;;;;;;;18.07;11.70;;;3.30;99.90;;;;;;5083578;28;20261;-71
2021/03/19 12:55:50;;;;;;;20.80;11.00;;;3.30;99.90;;;;;;5080497;28;20187;-71
2021/03/19 12:58:17;;;;;;;19.80;11.40;;;3.40;99.90;;;;;;5082725;28;20422;-71
2021/03/19 13:00:43;;;;;;;19.20;12.07;;;3.40;99.90;;;;;;5080591;28;20949;-71
2021/03/19 13:03:09;;;;;;;16.30;10.50;;;3.60;99.90;;;;;;5080863;28;20425;-71
2021/03/19 13:05:36;;;;;;;15.93;10.23;;;3.70;99.90;;;;;;5091792;28;20180;-72
2021/03/19 13:08:02;;;;;;;19.30;11.43;;;3.80;99.90;;;;;;5092660;28;20913;-72
2021/03/19 13:10:32;;;;;;;18.60;11.43;;;3.90;99.90;;;;;;5090224;28;20469;-71
2021/03/19 13:12:58;;;;;;;18.53;11.37;;;4.00;99.90;;;;;;5088771;28;20413;-71
2021/03/19 13:15:25;;;;;;;16.60;10.83;;;4.10;99.90;;;;;;5081408;28;20460;-72